Aérodrome :
LOGIN :

S'inscrire | Disclaimer

   EN    FR    IT 

 










Légende :    VFR   VFR Marginal   IFR   IFR Intensif   IFR Très Intensif
Visi : 
Plafond : 
>= 8 km
>= 3000ft
5 à 8 km
1000 à 3000 ft
1500m à 5 km
500 à 1000 ft
800 à 1500m
200 à 500 ft
< 800m
< 200 ft
Symboles :   Orages  Brouillard  Fortes neiges  Fortes précipitations  Vent > 20 kt
SIGMETs :   Divers  Orages  Givrage  Turbulence  Onde Orograph.  Cendres Volcan.






- Altitude de l'aérodrome : 36 ft
- Code IATA : LTQ


LFAT - Le Touquet

DERNIER METAR :
  • 030700Z AUTO 12005KT 9999 ///TCU 15/14 Q1013 TEMPO 4000 RA BKN006 SCT030CB

METARs EXPIRÉS :
  • 030630Z AUTO 10005KT CAVOK 15/14 Q1013 TEMPO 4000 RA BKN006 SCT030CB
  • 030600Z AUTO 09004KT 060V120 CAVOK 14/14 Q1013 TEMPO 4000 RA BKN006 SCT030CB
  • 030530Z AUTO 08004KT 9999 FEW011 BKN058 BKN068 13/13 Q1013 TEMPO 4000 RA BKN006 SCT030CB
  • 030500Z AUTO 00000KT 9999 BKN012 BKN066 OVC120 13/13 Q1013
  • 030430Z AUTO VRB03KT 9999 -RA FEW012/// BKN076/// OVC110/// ///CB 13/13 Q1013

TAF TAF LFAT
Valide du 03 à 06h jusqu'au 03 à 15h UTC


030500Z 0306/0315 VRB03KT 9999 BKN017
TEMPO 0306/0308 4000 RA BKN006 SCT030CB
BECMG 0309/0311 26010KT
TEMPO 0311/0315 3000 SHRA BKN020TCU
ATIS : +33 3 21 06 62 84



MET'MAP, la Météo Aéronautique d'un coup d'oeil ! - Copyright ORBIFLY Décembre 2007 - Disclaimer

ORBIFLY MET'MAP TEAM :

Programmation & Développement : Alexandra Zaïnal
Sur une idée originale de : Baudouin d'Aumeries
Assistance à la programmation : Marc-Olivier Méhu
Soutien technique & logistique : Manuel Goepfert

Contact : metmap@orbifly.com




SOURCES & CREDITS :

   NOAA